Data for 02/11/2018

Time Sea-Level Adjusted Pressure Absolute Pressure Temperature Relative Humidity Dew Point   
(mb) (inHg) (mb) (inHg) (C) (F) (%) (C) (F)
00:05 1016 30 845 24.95 -11.5 11.4 73 -15.4 4.3
00:10 1016 30 845 24.95 -11.9 10.7 75 -15.5 4.1
00:15 1016 30 845 24.95 -11.7 10.9 77 -15 4.9
00:20 1016 30 845 24.95 -11.2 11.9 77 -14.4 6.1
00:25 1016 30 845 24.95 -10.4 13.2 71 -14.7 5.6
00:30 1016 30 845 24.95 -9.8 14.5 70 -14.3 6.3
00:35 1016 30 845 24.95 -9.9 14.2 71 -14.2 6.4
00:40 1015 29.97 845 24.95 -9.9 14.1 73 -13.9 6.9
00:45 1015 29.97 845 24.95 -10.1 13.8 74 -13.9 6.9
00:50 1015 29.97 845 24.95 -10.1 13.8 73 -14 6.7
00:55 1015 29.97 845 24.95 -10.3 13.4 73 -14.3 6.2
01:00 1015 29.97 845 24.95 -11 12.2 75 -14.7 5.6
01:05 1015 29.97 844 24.92 -10.5 13.1 74 -14.3 6.2
01:10 1015 29.97 844 24.92 -10 14 73 -14 6.8
01:15 1015 29.97 844 24.92 -9.8 14.3 71 -14.1 6.6
01:20 1015 29.97 844 24.92 -9.9 14.2 72 -14 6.8
01:25 1015 29.97 844 24.92 -9.8 14.3 71 -14.1 6.6
01:30 1015 29.97 844 24.92 -9.8 14.3 72 -14 6.8
01:35 1015 29.97 844 24.92 -9.9 14.1 73 -14 6.9
01:40 1015 29.97 844 24.92 -9.9 14.1 72 -14.1 6.5
01:45 1015 29.97 844 24.92 -9.8 14.4 71 -14.2 6.5
01:50 1015 29.97 844 24.92 -9.8 14.4 70 -14.2 6.5
01:55 1015 29.97 844 24.92 -9.8 14.3 71 -14.2 6.5
02:00 1015 29.97 844 24.92 -9.6 14.7 73 -13.6 7.4
02:05 1015 29.97 844 24.92 -9.2 15.5 71 -13.5 7.7
02:10 1015 29.97 844 24.92 -9.1 15.5 72 -13.3 8
02:15 1015 29.97 844 24.92 -9.4 15 70 -13.9 7.1
02:20 1015 29.97 844 24.92 -9.5 14.8 73 -13.5 7.7
02:25 1015 29.97 844 24.92 -9 15.8 68 -13.9 7
02:30 1014 29.94 844 24.92 -8.9 15.9 68 -13.8 7.2
02:35 1014 29.94 844 24.92 -8.7 16.3 66 -14 6.8
02:40 1014 29.94 844 24.92 -8.4 17 64 -13.9 6.9
02:45 1014 29.94 844 24.92 -8.3 17.2 64 -13.8 7.1
02:50 1014 29.94 843 24.89 -8.5 16.7 66 -13.7 7.3
02:55 1014 29.94 843 24.89 -8.3 17.1 65 -13.7 7.3
03:00 1014 29.94 843 24.89 -9.2 15.5 70 -13.7 7.4
03:05 1014 29.94 843 24.89 -9.7 14.5 70 -14.2 6.5
03:10 1014 29.94 843 24.89 -9.6 14.7 69 -14.3 6.3
03:15 1014 29.94 843 24.89 -9.5 14.9 68 -14.4 6.1
03:20 1014 29.94 843 24.89 -9.5 15 67 -14.5 5.9
03:25 1014 29.94 843 24.89 -9.8 14.3 70 -14.3 6.2
03:30 1014 29.94 843 24.89 -9.9 14.2 70 -14.4 6.1
03:35 1014 29.94 843 24.89 -9.9 14.2 70 -14.4 6
03:40 1014 29.94 843 24.89 -9.7 14.5 69 -14.3 6.2
03:45 1014 29.94 843 24.89 -9.5 14.9 69 -14.2 6.4
03:50 1014 29.94 843 24.89 -9.3 15.3 68 -14.2 6.4
03:55 1014 29.94 843 24.89 -9.1 15.7 65 -14.5 6
04:00 1014 29.94 843 24.89 -9 15.7 68 -14 6.9
04:05 1014 29.94 843 24.89 -8.9 16 64 -14.4 6
04:10 1014 29.94 843 24.89 -8.7 16.3 63 -14.5 5.9
04:15 1014 29.94 843 24.89 -9 15.8 65 -14.5 5.9
04:20 1014 29.94 843 24.89 -8.5 16.6 65 -14 6.8
04:25 1014 29.94 843 24.89 -8.3 17 61 -14.5 5.8
04:30 1014 29.94 843 24.89 -8.7 16.3 65 -14.3 6.3
04:35 1014 29.94 843 24.89 -9.2 15.5 66 -14.4 6
04:40 1014 29.94 843 24.89 -9.5 14.9 67 -14.6 5.8
04:45 1014 29.94 843 24.89 -9.5 15 67 -14.5 6
04:50 1013 29.91 843 24.89 -9.5 14.9 68 -14.3 6.2
04:55 1013 29.91 843 24.89 -9.7 14.5 69 -14.5 6
05:00 1013 29.91 843 24.89 -9.5 15 62 -15.4 4.2
05:05 1013 29.91 842 24.86 -9.4 15.1 62 -15.3 4.4
05:10 1013 29.91 842 24.86 -9.5 14.8 69 -14.3 6.3
05:15 1013 29.91 842 24.86 -9.8 14.3 67 -14.8 5.3
05:20 1013 29.91 842 24.86 -10.4 13.3 71 -14.7 5.6
05:25 1013 29.91 842 24.86 -10.4 13.4 72 -14.5 5.9
05:30 1013 29.91 842 24.86 -10.3 13.5 72 -14.4 6.2
05:35 1013 29.91 842 24.86 -10.6 13 72 -14.7 5.5
05:40 1013 29.91 842 24.86 -10.9 12.4 72 -14.9 5.1
05:45 1013 29.91 842 24.86 -11.2 11.9 73 -15.1 4.8
05:50 1013 29.91 842 24.86 -11 12.1 72 -15.2 4.6
05:55 1013 29.91 842 24.86 -10.7 12.7 71 -15.1 4.9
06:00 1013 29.91 842 24.86 -10.8 12.6 72 -15 5
06:05 1013 29.91 842 24.86 -11.1 12.1 72 -15.2 4.7
06:10 1013 29.91 842 24.86 -11 12.1 73 -14.9 5.1
06:15 1013 29.91 842 24.86 -11.2 11.9 74 -15 4.9
06:20 1013 29.91 842 24.86 -11.3 11.6 74 -15.2 4.7
06:25 1013 29.91 842 24.86 -11.3 11.6 73 -15.3 4.4
06:30 1013 29.91 842 24.86 -11.3 11.6 73 -15.2 4.6
06:35 1012 29.88 842 24.86 -11.3 11.8 75 -14.9 5.2
06:40 1012 29.88 842 24.86 -10.6 12.9 71 -14.9 5.1
06:45 1012 29.88 842 24.86 -10.1 13.9 68 -14.9 5.2
06:50 1012 29.88 842 24.86 -9.8 14.4 68 -14.6 5.6
06:55 1012 29.88 842 24.86 -9.5 14.9 63 -15.3 4.5
07:00 1012 29.88 842 24.86 -9.4 15.1 61 -15.5 4
07:05 1012 29.88 842 24.86 -9.7 14.5 62 -15.6 3.9
07:10 1012 29.88 842 24.86 -9.9 14.2 64 -15.5 4.1
07:15 1013 29.91 842 24.86 -9.8 14.4 66 -15.1 4.9
07:20 1013 29.91 842 24.86 -9.7 14.5 65 -15.1 4.8
07:25 1013 29.91 842 24.86 -9.6 14.8 64 -15.1 4.7
07:30 1013 29.91 842 24.86 -9.2 15.4 65 -14.7 5.6
07:35 1013 29.91 842 24.86 -8.7 16.3 59 -15.3 4.5
07:40 1013 29.91 842 24.86 -8.3 17 61 -14.6 5.7
07:45 1013 29.91 842 24.86 -8.6 16.5 62 -14.7 5.6
07:50 1013 29.91 842 24.86 -8.8 16.3 64 -14.4 6.2
07:55 1013 29.91 842 24.86 -8.7 16.4 62 -14.7 5.6
08:00 1013 29.91 842 24.86 -8.5 16.7 62 -14.5 5.8
08:05 1013 29.91 842 24.86 -8.2 17.2 61 -14.4 6.1
08:10 1013 29.91 842 24.86 -8 17.5 60 -14.4 6.1
08:15 1013 29.91 842 24.86 -7.9 17.9 60 -14.3 6.2
08:20 1013 29.91 842 24.86 -7.3 18.8 59 -14.1 6.7
08:25 1013 29.91 842 24.86 -7.1 19.2 59 -13.8 7.1
08:30 1013 29.91 842 24.86 -7.2 19.1 58 -14.1 6.6
08:35 1013 29.91 842 24.86 -6.9 19.6 57 -14.1 6.6
08:40 1013 29.91 842 24.86 -6.7 20 57 -13.9 6.9
08:45 1013 29.91 842 24.86 -6.4 20.5 55 -14.1 6.7
08:50 1013 29.91 842 24.86 -6.4 20.5 58 -13.4 7.9
08:55 1013 29.91 842 24.86 -6.3 20.7 57 -13.5 7.8
09:00 1013 29.91 842 24.86 -6.1 21.1 55 -13.7 7.4
09:05 1013 29.91 842 24.86 -5.6 21.9 54 -13.6 7.6
09:10 1013 29.91 842 24.86 -5.1 22.9 50 -14 6.8
09:15 1013 29.91 842 24.86 -4.9 23.1 52 -13.3 8.1
09:20 1013 29.91 842 24.86 -4.6 23.8 47 -14.2 6.4
09:25 1013 29.91 842 24.86 -4 24.7 47 -13.6 7.5
09:30 1013 29.91 842 24.86 -3.7 25.4 42 -14.9 5.2
09:35 1013 29.91 842 24.86 -3.5 25.8 42 -14.6 5.8
09:40 1013 29.91 842 24.86 -3.3 26 42 -14.6 5.6
09:45 1013 29.91 842 24.86 -3.5 25.7 38 -15.8 3.5
09:50 1013 29.91 842 24.86 -3.4 25.9 39 -15.5 4.1
09:55 1013 29.91 842 24.86 -2.7 27.2 36 -15.7 3.8
10:00 1013 29.91 842 24.86 -2.5 27.5 37 -15.3 4.5
10:05 1013 29.91 842 24.86 -2 28.4 37 -14.8 5.3
10:10 1013 29.91 842 24.86 -1.3 29.6 35 -14.8 5.3
10:15 1013 29.91 842 24.86 -1.5 29.2 31 -16.4 2.4
10:20 1013 29.91 842 24.86 -2.1 28.3 34 -15.9 3.4
10:25 1013 29.91 842 24.86 -2.1 28.2 33 -16.2 2.8
10:30 1013 29.91 842 24.86 -2.2 28 34 -16.1 2.9
10:35 1013 29.91 842 24.86 -2.5 27.5 35 -15.9 3.3
10:40 1013 29.91 842 24.86 -1.9 28.6 34 -15.9 3.4
10:45 1013 29.91 842 24.86 -1.2 29.8 31 -16.2 2.8
10:50 1013 29.91 842 24.86 -1.4 29.5 33 -15.8 3.6
10:55 1013 29.91 842 24.86 -1.2 29.9 32 -15.8 3.5
11:00 1013 29.91 842 24.86 -1.2 29.9 32 -15.8 3.5
11:05 1013 29.91 842 24.86 -1.9 28.5 34 -15.9 3.3
11:10 1013 29.91 842 24.86 -1.8 28.8 32 -16.6 2.2
11:15 1013 29.91 842 24.86 -2.1 28.3 33 -16.2 2.8
11:20 1013 29.91 842 24.86 -2.5 27.6 36 -15.6 4
11:25 1013 29.91 842 24.86 -1.7 29 35 -15.4 4.3
11:30 1013 29.91 842 24.86 -1.2 29.8 33 -15.6 3.8
11:35 1013 29.91 842 24.86 -1.3 29.7 32 -16.1 2.9
11:40 1013 29.91 842 24.86 -2.1 28.3 34 -15.8 3.5
11:45 1013 29.91 842 24.86 -1.9 28.6 34 -15.7 3.7
11:50 1013 29.91 842 24.86 -1.7 28.9 36 -14.8 5.3
11:55 1013 29.91 842 24.86 -2.2 28 46 -12.4 9.6
12:00 1013 29.91 842 24.86 -2.9 26.9 49 -12.2 10.1
12:05 1013 29.91 842 24.86 -3.4 25.8 50 -12.3 9.8
12:10 1013 29.91 842 24.86 -4 24.9 51 -12.8 9
12:15 1013 29.91 842 24.86 -4.1 24.6 53 -12.3 9.9
12:20 1013 29.91 842 24.86 -4.3 24.2 53 -12.5 9.5
12:25 1013 29.91 842 24.86 -4.7 23.6 53 -12.7 9.1
12:30 1012 29.88 842 24.86 -5.3 22.5 57 -12.6 9.2
12:35 1013 29.91 842 24.86 -5.7 21.7 57 -13 8.6
12:40 1013 29.91 842 24.86 -5.7 21.7 58 -12.6 9.2
12:45 1013 29.91 842 24.86 -5.9 21.4 61 -12.3 9.9
12:50 1013 29.91 842 24.86 -6.3 20.7 62 -12.5 9.5
12:55 1013 29.91 842 24.86 -6.4 20.5 62 -12.5 9.6
13:00 1013 29.91 842 24.86 -6.5 20.3 62 -12.6 9.4
13:05 1013 29.91 842 24.86 -6.6 20.1 63 -12.6 9.3
13:10 1013 29.91 842 24.86 -6.5 20.2 62 -12.6 9.3
13:15 1013 29.91 842 24.86 -6.6 20.1 61 -13 8.7
13:20 1013 29.91 842 24.86 -6.8 19.8 60 -13.3 8.1
13:25 1013 29.91 842 24.86 -6.9 19.6 61 -13.3 8.1
13:30 1013 29.91 842 24.86 -6.8 19.8 60 -13.2 8.2
13:35 1013 29.91 842 24.86 -6.7 19.9 62 -12.8 8.9
13:40 1013 29.91 842 24.86 -6.7 20 61 -12.9 8.8
13:45 1013 29.91 842 24.86 -6.9 19.6 64 -12.6 9.3
13:50 1013 29.91 842 24.86 -7.3 18.9 67 -12.5 9.5
13:55 1013 29.91 842 24.86 -7.6 18.4 69 -12.4 9.7
14:00 1013 29.91 842 24.86 -7.7 18.1 67 -12.8 9
14:05 1013 29.91 842 24.86 -8 17.6 67 -13 8.6
14:10 1013 29.91 842 24.86 -8.2 17.2 68 -13.1 8.5
14:15 1013 29.91 842 24.86 -8.7 16.4 70 -13.2 8.2
14:20 1013 29.91 843 24.89 -8.9 15.9 68 -13.8 7.1
14:25 1013 29.91 843 24.89 -9.2 15.5 68 -14 6.8
14:30 1014 29.94 843 24.89 -9.4 15.1 67 -14.4 6.2
14:35 1014 29.94 843 24.89 -9.6 14.8 67 -14.6 5.7
14:40 1014 29.94 843 24.89 -9.7 14.6 67 -14.6 5.7
14:45 1014 29.94 843 24.89 -9.7 14.5 67 -14.7 5.5
14:50 1014 29.94 843 24.89 -9.9 14.3 66 -15.1 4.8
14:55 1014 29.94 843 24.89 -10 14.1 66 -15.2 4.6
15:00 1014 29.94 843 24.89 -10.2 13.7 66 -15.3 4.4
15:05 1014 29.94 843 24.89 -10.3 13.5 67 -15.2 4.6
15:10 1014 29.94 843 24.89 -10.4 13.4 67 -15.3 4.4
15:15 1014 29.94 843 24.89 -10.4 13.3 67 -15.4 4.2
15:20 1014 29.94 843 24.89 -10.5 13.2 68 -15.3 4.4
15:25 1014 29.94 843 24.89 -10.5 13 66 -15.7 3.8
15:30 1014 29.94 843 24.89 -10.7 12.8 67 -15.7 3.7
15:35 1014 29.94 843 24.89 -10.7 12.7 66 -16 3.3
15:40 1014 29.94 843 24.89 -10.9 12.5 67 -15.9 3.3
15:45 1014 29.94 843 24.89 -10.9 12.4 66 -16 3.1
15:50 1014 29.94 844 24.92 -11 12.2 68 -15.8 3.5
15:55 1015 29.97 844 24.92 -11.1 12 69 -15.8 3.6
16:00 1015 29.97 844 24.92 -11.2 11.8 68 -16.1 3
16:05 1015 29.97 844 24.92 -11.3 11.6 68 -16.1 3
16:10 1015 29.97 844 24.92 -11.5 11.4 69 -16.1 3
16:15 1015 29.97 844 24.92 -11.6 11.1 68 -16.4 2.5
16:20 1015 29.97 844 24.92 -11.7 10.9 68 -16.4 2.5
16:25 1015 29.97 844 24.92 -11.8 10.8 69 -16.4 2.4
16:30 1015 29.97 844 24.92 -11.8 10.8 69 -16.4 2.5
16:35 1015 29.97 844 24.92 -11.9 10.7 67 -16.8 1.8
16:40 1015 29.97 844 24.92 -11.8 10.7 67 -16.8 1.7
16:45 1015 29.97 844 24.92 -11.9 10.6 67 -16.8 1.8
16:50 1015 29.97 844 24.92 -12.1 10.3 68 -16.9 1.7
16:55 1015 29.97 844 24.92 -12.1 10.3 67 -16.9 1.5
17:00 1015 29.97 844 24.92 -12.1 10.2 67 -17.1 1.2
17:05 1015 29.97 845 24.95 -12.2 10 67 -17.1 1.2
17:10 1016 30 845 24.95 -12.3 9.8 67 -17.2 1
17:15 1016 30 845 24.95 -12.4 9.8 66 -17.5 0.6
17:20 1016 30 845 24.95 -12.5 9.5 67 -17.5 0.6
17:25 1016 30 845 24.95 -12.5 9.4 66 -17.7 0.2
17:30 1016 30 845 24.95 -12.6 9.4 65 -17.8 -0
17:35 1016 30 845 24.95 -12.7 9.2 65 -17.9 -0.2
17:40 1016 30 845 24.95 -12.7 9.2 63 -18.3 -0.9
17:45 1016 30 845 24.95 -12.7 9.1 65 -18.1 -0.5
17:50 1016 30 845 24.95 -12.8 9 64 -18.2 -0.8
17:55 1016 30 845 24.95 -12.9 8.8 63 -18.5 -1.3
18:00 1016 30 845 24.95 -13 8.7 64 -18.5 -1.3
18:05 1016 30 845 24.95 -13.1 8.5 64 -18.5 -1.3
18:10 1016 30 845 24.95 -13.2 8.3 65 -18.4 -1
18:15 1016 30 845 24.95 -13.3 8.1 66 -18.3 -1
18:20 1016 30 845 24.95 -13.4 8 67 -18.3 -1
18:25 1016 30 845 24.95 -13.4 7.9 67 -18.4 -1
18:30 1016 30 845 24.95 -13.5 7.8 66 -18.5 -1.3
18:35 1016 30 845 24.95 -13.6 7.6 65 -18.7 -1.7
18:40 1016 30 845 24.95 -13.6 7.5 65 -18.9 -1.9
18:45 1016 30 845 24.95 -13.8 7.3 66 -18.8 -1.9
18:50 1016 30 845 24.95 -13.8 7.3 66 -18.9 -2
18:55 1016 30 845 24.95 -13.8 7.1 64 -19.2 -2.6
19:00 1016 30 845 24.95 -13.9 7 65 -19.1 -2.5
19:05 1016 30 845 24.95 -14 6.8 65 -19.2 -2.6
19:10 1016 30 845 24.95 -14.1 6.7 66 -19.1 -2.4
19:15 1016 30 845 24.95 -14.1 6.6 66 -19.2 -2.6
19:20 1016 30 845 24.95 -14.2 6.5 66 -19.2 -2.5
19:25 1016 30 846 24.98 -14.2 6.5 66 -19.3 -2.8
19:30 1016 30 846 24.98 -14.2 6.4 66 -19.3 -2.8
19:35 1017 30.03 846 24.98 -14.3 6.3 67 -19.2 -2.6
19:40 1017 30.03 846 24.98 -14.3 6.2 67 -19.3 -2.7
19:45 1017 30.03 846 24.98 -14.4 6.1 67 -19.2 -2.6
19:50 1017 30.03 846 24.98 -14.5 6 68 -19.2 -2.5
19:55 1017 30.03 846 24.98 -14.5 5.9 67 -19.4 -2.9
20:00 1017 30.03 846 24.98 -14.5 5.8 67 -19.4 -2.9
20:05 1017 30.03 846 24.98 -14.6 5.8 68 -19.3 -2.7
20:10 1017 30.03 846 24.98 -14.6 5.7 68 -19.4 -2.8
20:15 1017 30.03 846 24.98 -14.7 5.6 69 -19.2 -2.5
20:20 1017 30.03 846 24.98 -14.7 5.5 69 -19.2 -2.5
20:25 1017 30.03 846 24.98 -14.7 5.5 69 -19.2 -2.6
20:30 1017 30.03 846 24.98 -14.8 5.4 69 -19.2 -2.6
20:35 1017 30.03 846 24.98 -14.8 5.3 69 -19.3 -2.8
20:40 1017 30.03 846 24.98 -14.8 5.3 69 -19.3 -2.8
20:45 1017 30.03 846 24.98 -14.9 5.3 69 -19.3 -2.7
20:50 1017 30.03 846 24.98 -14.9 5.2 69 -19.3 -2.8
20:55 1017 30.03 846 24.98 -15 5.1 70 -19.3 -2.8
21:00 1017 30.03 846 24.98 -15 5 70 -19.3 -2.8
21:05 1017 30.03 846 24.98 -15 5 68 -19.7 -3.4
21:10 1017 30.03 846 24.98 -15.1 4.9 69 -19.6 -3.3
21:15 1017 30.03 846 24.98 -15.2 4.7 68 -19.8 -3.6
21:20 1017 30.03 846 24.98 -15.2 4.6 68 -19.9 -3.7
21:25 1017 30.03 846 24.98 -15.3 4.5 70 -19.7 -3.4
21:30 1017 30.03 846 24.98 -15.4 4.4 70 -19.6 -3.3
21:35 1017 30.03 846 24.98 -15.4 4.3 71 -19.5 -3.2
21:40 1017 30.03 846 24.98 -15.4 4.3 70 -19.7 -3.4
21:45 1017 30.03 846 24.98 -15.4 4.2 70 -19.7 -3.5
21:50 1017 30.03 847 25.01 -15.5 4.2 70 -19.8 -3.6
21:55 1017 30.03 847 25.01 -15.5 4.1 70 -19.8 -3.6
22:00 1017 30.03 847 25.01 -15.5 4.1 69 -20 -4
22:05 1017 30.03 847 25.01 -15.6 4 69 -20 -3.9
22:10 1017 30.03 847 25.01 -15.6 4 69 -20.1 -4.2
22:15 1017 30.03 847 25.01 -15.6 3.9 70 -20 -3.9
22:20 1017 30.03 847 25.01 -15.7 3.8 71 -19.8 -3.6
22:25 1017 30.03 847 25.01 -15.7 3.8 72 -19.7 -3.4
22:30 1018 30.06 847 25.01 -15.8 3.6 72 -19.7 -3.4
22:35 1018 30.06 847 25.01 -15.8 3.6 73 -19.6 -3.3
22:40 1018 30.06 847 25.01 -15.9 3.5 73 -19.7 -3.5
22:45 1018 30.06 847 25.01 -15.9 3.3 72 -19.9 -3.9
22:50 1018 30.06 847 25.01 -15.9 3.3 72 -19.8 -3.7
22:55 1018 30.06 847 25.01 -15.9 3.3 71 -20.1 -4.1
23:00 1018 30.06 847 25.01 -16 3.3 71 -20.2 -4.3
23:05 1018 30.06 847 25.01 -16 3.2 71 -20.1 -4.2
23:10 1018 30.06 847 25.01 -16 3.2 70 -20.3 -4.5
23:15 1018 30.06 847 25.01 -16 3.1 71 -20.2 -4.3
23:20 1018 30.06 847 25.01 -16.1 3.1 71 -20.1 -4.2
23:25 1018 30.06 847 25.01 -16.1 3 71 -20.2 -4.3
23:30 1018 30.06 847 25.01 -16.1 3 70 -20.5 -4.8
23:35 1018 30.06 847 25.01 -16.2 2.9 69 -20.6 -5.1
23:40 1018 30.06 847 25.01 -16.2 2.8 67 -20.9 -5.7
23:45 1018 30.06 847 25.01 -16.2 2.8 66 -21.1 -6.1
23:50 1018 30.06 847 25.01 -16.3 2.7 67 -21.1 -6.1
23:55 1018 30.06 847 25.01 -16.3 2.7 66 -21.3 -6.3
24:00 1018 30.06 847 25.01 -16.3 2.7 66 -21.3 -6.4